createdAt,value
2023-05-19T00:01:17.570Z,100649.66
2023-05-19T00:04:21.363Z,100643.13
2023-05-19T00:07:29.132Z,100638.94
2023-05-19T00:10:33.302Z,100642.75
2023-05-19T00:13:36.352Z,100651.25
2023-05-19T00:16:40.105Z,100658.56
2023-05-19T00:19:45.165Z,100665.44
2023-05-19T00:22:48.260Z,100662.91
2023-05-19T00:25:51.306Z,100670.94
2023-05-19T00:28:54.139Z,100658.22
2023-05-19T00:31:56.775Z,100656.59
2023-05-19T00:34:59.665Z,100654.44
2023-05-19T00:38:02.176Z,100644.75
2023-05-19T00:41:05.665Z,100646.25
2023-05-19T00:44:08.293Z,100647.56
2023-05-19T00:47:11.168Z,100645.28
2023-05-19T00:50:13.789Z,100639.56
2023-05-19T00:53:18.347Z,100638.88
2023-05-19T00:56:21.876Z,100641.19
2023-05-19T00:59:24.951Z,100625.53
2023-05-19T01:02:29.809Z,100615.50
2023-05-19T01:05:33.053Z,100628.16
2023-05-19T01:08:37.408Z,100629.94
2023-05-19T01:11:40.343Z,100628.09
2023-05-19T01:14:43.227Z,100624.44
2023-05-19T01:17:54.728Z,100621.41
2023-05-19T01:21:26.706Z,100631.38
2023-05-19T01:24:39.127Z,100622.41
2023-05-19T01:27:50.905Z,100625.38
2023-05-19T01:30:55.909Z,100621.84
2023-05-19T01:33:58.775Z,100627.31
2023-05-19T01:37:02.066Z,100632.66
2023-05-19T01:40:06.635Z,100622.47
2023-05-19T01:43:13.596Z,100627.94
2023-05-19T01:46:16.704Z,100624.97
2023-05-19T01:49:19.708Z,100631.81
2023-05-19T01:52:22.286Z,100614.16
2023-05-19T01:55:25.705Z,100615.28
2023-05-19T01:58:47.802Z,100618.94
2023-05-19T02:01:54.619Z,100620.47
2023-05-19T02:05:10.450Z,100621.47
2023-05-19T02:08:42.310Z,100626.28
2023-05-19T02:12:06.645Z,100634.44
2023-05-19T02:15:16.579Z,100636.94
2023-05-19T02:18:20.437Z,100639.44
2023-05-19T02:21:26.591Z,100639.44
2023-05-19T02:24:30.880Z,100651.63
2023-05-19T02:27:36.188Z,100647.44
2023-05-19T02:30:38.988Z,100644.25
2023-05-19T02:33:43.019Z,100640.28
2023-05-19T02:36:45.582Z,100631.44
2023-05-19T02:39:48.455Z,100627.56
2023-05-19T02:42:51.012Z,100630.84
2023-05-19T02:45:53.871Z,100624.84
2023-05-19T02:48:56.548Z,100622.31
2023-05-19T02:51:59.509Z,100622.31
2023-05-19T02:55:02.145Z,100624.84
2023-05-19T02:58:05.309Z,100622.31
2023-05-19T03:01:07.850Z,100621.66
2023-05-19T03:04:11.279Z,100617.81
2023-05-19T03:07:13.852Z,100620.50
2023-05-19T03:10:16.844Z,100617.16
2023-05-19T03:13:19.441Z,100623.63
2023-05-19T03:16:22.432Z,100620.81
2023-05-19T03:19:25.067Z,100628.97
2023-05-19T03:22:27.934Z,100627.13
2023-05-19T03:25:30.595Z,100636.41
2023-05-19T03:28:33.490Z,100639.31
2023-05-19T03:31:36.131Z,100633.97
2023-05-19T03:34:39.378Z,100640.16
2023-05-19T03:37:42.088Z,100641.16
2023-05-19T03:40:45.255Z,100644.13
2023-05-19T03:43:48.001Z,100644.13
2023-05-19T03:46:51.063Z,100644.81
2023-05-19T03:49:55.018Z,100643.50
2023-05-19T03:53:01.753Z,100635.19
2023-05-19T03:56:04.713Z,100635.03
2023-05-19T03:59:08.199Z,100631.44
2023-05-19T04:02:11.880Z,100634.97
2023-05-19T04:05:14.939Z,100644.03
2023-05-19T04:08:17.477Z,100641.66
2023-05-19T04:11:21.483Z,100636.56
2023-05-19T04:14:24.638Z,100644.41
2023-05-19T04:17:27.909Z,100647.75
2023-05-19T04:20:31.011Z,100655.00
2023-05-19T04:23:34.122Z,100660.69
2023-05-19T04:26:38.427Z,100664.06
2023-05-19T04:29:41.349Z,100660.28
2023-05-19T04:32:43.977Z,100662.41
2023-05-19T04:35:47.114Z,100658.88
2023-05-19T04:38:54.728Z,100667.25
2023-05-19T04:41:58.217Z,100659.62
2023-05-19T04:45:00.848Z,100668.72
2023-05-19T04:48:04.382Z,100677.25
2023-05-19T04:51:07.492Z,100674.97
2023-05-19T04:54:10.468Z,100671.81
2023-05-19T04:57:13.113Z,100679.03
2023-05-19T05:00:16.913Z,100682.06
2023-05-19T05:03:22.971Z,100679.75
2023-05-19T05:06:28.594Z,100686.44
2023-05-19T05:09:31.282Z,100692.03
2023-05-19T05:12:35.110Z,100682.53
2023-05-19T05:15:37.923Z,100687.38
2023-05-19T05:18:43.464Z,100691.69
2023-05-19T05:21:47.706Z,100691.56
2023-05-19T05:24:51.302Z,100681.59
2023-05-19T05:27:54.601Z,100683.94
2023-05-19T05:30:57.929Z,100684.19
2023-05-19T05:34:00.982Z,100686.25
2023-05-19T05:37:04.438Z,100685.59
2023-05-19T05:40:08.653Z,100688.75
2023-05-19T05:43:11.695Z,100694.41
2023-05-19T05:46:15.082Z,100686.41
2023-05-19T05:49:18.294Z,100696.78
2023-05-19T05:52:22.310Z,100691.94
2023-05-19T05:55:25.527Z,100701.69
2023-05-19T05:58:28.880Z,100699.19
2023-05-19T06:01:33.582Z,100696.53
2023-05-19T06:04:37.898Z,100697.91
2023-05-19T06:07:41.879Z,100692.53
2023-05-19T06:10:47.255Z,100690.19
2023-05-19T06:13:50.536Z,100693.06
2023-05-19T06:16:54.800Z,100705.25
2023-05-19T06:19:57.415Z,100707.09
2023-05-19T06:23:01.373Z,100707.25
2023-05-19T06:26:04.125Z,100707.28
2023-05-19T06:29:07.817Z,100716.44
2023-05-19T06:32:10.591Z,100712.91
2023-05-19T06:35:14.055Z,100714.91
2023-05-19T06:38:16.644Z,100725.63
2023-05-19T06:41:19.566Z,100730.25
2023-05-19T06:44:22.969Z,100727.06
2023-05-19T06:47:26.051Z,100734.06
2023-05-19T06:50:28.604Z,100737.50
2023-05-19T06:53:33.666Z,100732.09
2023-05-19T06:56:37.891Z,100731.94
2023-05-19T06:59:43.885Z,100737.12
2023-05-19T07:02:47.304Z,100737.59
2023-05-19T07:05:50.721Z,100737.50
2023-05-19T07:08:56.696Z,100743.66
2023-05-19T07:12:01.380Z,100742.44
2023-05-19T07:15:06.063Z,100733.28
2023-05-19T07:18:09.198Z,100738.87
2023-05-19T07:21:11.874Z,100733.34
2023-05-19T07:24:14.738Z,100729.69
2023-05-19T07:27:17.236Z,100733.97
2023-05-19T07:30:20.107Z,100732.03
2023-05-19T07:33:22.722Z,100727.97
2023-05-19T07:36:25.690Z,100725.47
2023-05-19T07:39:29.793Z,100717.22
2023-05-19T07:42:32.787Z,100712.72
2023-05-19T07:45:35.387Z,100714.78
2023-05-19T07:48:38.346Z,100701.87
2023-05-19T07:51:41.903Z,100707.63
2023-05-19T07:54:45.846Z,100717.81
2023-05-19T07:57:49.257Z,100714.78
2023-05-19T08:00:53.293Z,100727.75
2023-05-19T08:03:56.668Z,100714.75
2023-05-19T08:06:59.788Z,100721.59
2023-05-19T08:10:03.099Z,100717.97
2023-05-19T08:13:05.882Z,100718.31
2023-05-19T08:16:08.766Z,100718.06
2023-05-19T08:19:11.310Z,100712.47
2023-05-19T08:22:14.155Z,100708.09
2023-05-19T08:25:16.806Z,100712.19
2023-05-19T08:28:19.625Z,100708.72
2023-05-19T08:31:22.655Z,100708.66
2023-05-19T08:34:25.696Z,100710.25
2023-05-19T08:37:28.397Z,100712.31
2023-05-19T08:40:32.018Z,100706.28
2023-05-19T08:43:34.887Z,100710.94
2023-05-19T08:46:37.763Z,100700.88
2023-05-19T08:49:47.540Z,100698.44
2023-05-19T08:53:01.636Z,100700.50
2023-05-19T08:56:18.685Z,100699.75
2023-05-19T08:59:22.071Z,100701.37
2023-05-19T09:02:24.957Z,100695.44
2023-05-19T09:05:28.065Z,100699.78
2023-05-19T09:08:30.744Z,100703.94
2023-05-19T09:11:34.136Z,100699.69
2023-05-19T09:14:37.168Z,100691.72
2023-05-19T09:17:40.180Z,100698.37
2023-05-19T09:20:45.121Z,100688.84
2023-05-19T09:23:48.860Z,100694.72
2023-05-19T09:26:51.406Z,100697.63
2023-05-19T09:29:54.299Z,100694.72
2023-05-19T09:32:56.978Z,100693.69
2023-05-19T09:36:00.070Z,100692.41
2023-05-19T09:39:13.149Z,100694.69
2023-05-19T09:42:16.770Z,100683.22
2023-05-19T09:45:20.545Z,100688.47
2023-05-19T09:48:26.518Z,100683.91
2023-05-19T09:51:29.598Z,100676.66
2023-05-19T09:54:34.473Z,100676.66
2023-05-19T09:57:37.533Z,100666.72
2023-05-19T10:00:40.610Z,100673.38
2023-05-19T10:03:44.977Z,100673.56
2023-05-19T10:06:53.494Z,100668.78
2023-05-19T10:09:58.594Z,100664.19
2023-05-19T10:13:01.432Z,100658.28
2023-05-19T10:16:05.248Z,100660.34
2023-05-19T10:19:08.068Z,100654.28
2023-05-19T10:22:11.066Z,100644.50
2023-05-19T10:25:20.024Z,100646.81
2023-05-19T10:28:26.667Z,100641.66
2023-05-19T10:31:30.679Z,100636.66
2023-05-19T10:34:40.616Z,100638.75
2023-05-19T10:37:46.816Z,100630.03
2023-05-19T10:41:11.772Z,100624.59
2023-05-19T10:44:34.742Z,100627.88
2023-05-19T10:47:37.795Z,100626.97
2023-05-19T10:50:40.479Z,100623.31
2023-05-19T10:53:46.753Z,100623.72
2023-05-19T10:56:49.354Z,100619.97
2023-05-19T10:59:52.209Z,100617.50
2023-05-19T11:02:57.925Z,100616.28
2023-05-19T11:06:32.476Z,100612.31
2023-05-19T11:09:40.926Z,100603.41
2023-05-19T11:12:45.858Z,100601.94
2023-05-19T11:15:49.898Z,100602.28
2023-05-19T11:18:57.007Z,100613.34
2023-05-19T11:22:10.879Z,100599.00
2023-05-19T11:25:18.347Z,100593.31
2023-05-19T11:28:26.242Z,100604.59
2023-05-19T11:31:30.839Z,100599.66
2023-05-19T11:34:33.549Z,100597.72
2023-05-19T11:37:37.021Z,100598.38
2023-05-19T11:40:40.632Z,100584.94
2023-05-19T11:43:43.603Z,100592.00
2023-05-19T11:46:46.378Z,100588.59
2023-05-19T12:10:00.010Z,100574.78
2023-05-19T12:13:03.512Z,100574.78
2023-05-19T12:16:06.657Z,100588.09
2023-05-19T12:19:10.345Z,100575.84
2023-05-19T12:22:13.452Z,100572.44
2023-05-19T12:25:16.950Z,100566.41
2023-05-19T12:28:19.806Z,100562.13
2023-05-19T12:31:25.661Z,100558.28
2023-05-19T12:34:28.410Z,100557.41
2023-05-19T12:37:34.957Z,100549.19
2023-05-19T12:40:42.178Z,100554.19
2023-05-19T12:43:45.068Z,100553.94
2023-05-19T12:46:52.162Z,100546.72
2023-05-19T12:50:02.701Z,100540.88
2023-05-19T12:53:08.848Z,100539.16
2023-05-19T12:56:14.075Z,100533.09
2023-05-19T12:59:37.314Z,100527.22
2023-05-19T13:03:02.956Z,100534.16
2023-05-19T13:06:05.689Z,100539.34
2023-05-19T13:09:08.604Z,100534.50
